createdAt,value
2017-06-23T00:01:32.871Z,14.20
2017-06-23T00:04:00.426Z,15.23
2017-06-23T00:06:27.976Z,15.63
2017-06-23T00:08:55.503Z,14.60
2017-06-23T00:11:23.299Z,14.13
2017-06-23T00:13:51.200Z,14.80
2017-06-23T00:16:18.710Z,12.57
2017-06-23T00:18:46.217Z,13.43
2017-06-23T00:21:13.823Z,14.23
2017-06-23T00:23:41.364Z,13.00
2017-06-23T00:26:08.876Z,14.30
2017-06-23T00:28:36.542Z,13.30
2017-06-23T00:31:04.083Z,14.03
2017-06-23T00:33:31.591Z,12.67
2017-06-23T00:35:59.442Z,12.13
2017-06-23T00:38:26.947Z,12.17
2017-06-23T00:40:54.463Z,12.33
2017-06-23T00:43:22.172Z,12.10
2017-06-23T00:45:49.687Z,12.20
2017-06-23T00:48:17.228Z,12.60
2017-06-23T00:50:44.767Z,11.73
2017-06-23T00:53:12.331Z,13.50
2017-06-23T00:55:40.199Z,11.53
2017-06-23T00:58:07.715Z,12.00
2017-06-23T01:00:35.234Z,11.20
2017-06-23T01:03:03.067Z,12.40
2017-06-23T01:05:30.579Z,11.23
2017-06-23T01:07:58.090Z,12.10
2017-06-23T01:10:26.006Z,11.07
2017-06-23T01:12:53.537Z,11.03
2017-06-23T01:15:21.091Z,11.70
2017-06-23T01:17:49.418Z,11.03
2017-06-23T01:20:16.964Z,11.77
2017-06-23T01:22:44.471Z,11.33
2017-06-23T01:25:12.288Z,11.20
2017-06-23T01:27:39.795Z,12.00
2017-06-23T01:30:07.335Z,12.17
2017-06-23T01:32:35.288Z,11.23
2017-06-23T01:35:02.855Z,10.70
2017-06-23T01:37:30.362Z,11.70
2017-06-23T01:39:58.186Z,11.80
2017-06-23T01:42:25.699Z,10.20
2017-06-23T01:44:53.201Z,9.80
2017-06-23T01:47:21.021Z,10.73
2017-06-23T01:49:48.556Z,10.23
2017-06-23T01:52:16.068Z,10.30
2017-06-23T01:54:43.640Z,10.87
2017-06-23T01:57:11.174Z,11.30
2017-06-23T01:59:38.679Z,10.90
2017-06-23T02:02:06.519Z,12.27
2017-06-23T02:04:34.034Z,11.43
2017-06-23T02:07:01.742Z,11.30
2017-06-23T02:09:29.319Z,10.60
2017-06-23T02:11:56.887Z,11.80
2017-06-23T02:14:24.399Z,11.10
2017-06-23T02:16:52.214Z,10.77
2017-06-23T02:19:19.723Z,11.97
2017-06-23T02:21:47.229Z,11.77
2017-06-23T02:24:14.834Z,10.50
2017-06-23T02:26:42.355Z,12.47
2017-06-23T02:29:09.870Z,12.57
2017-06-23T02:31:37.695Z,12.30
2017-06-23T02:34:05.217Z,11.63
2017-06-23T02:36:32.727Z,11.70
2017-06-23T02:39:00.280Z,12.90
2017-06-23T02:41:27.799Z,12.80
2017-06-23T02:43:55.347Z,12.33
2017-06-23T02:46:23.615Z,12.00
2017-06-23T02:48:51.119Z,11.10
2017-06-23T02:51:18.626Z,11.80
2017-06-23T02:53:46.475Z,13.50
2017-06-23T02:56:13.992Z,11.90
2017-06-23T02:58:41.959Z,12.73
2017-06-23T03:01:09.568Z,12.77
2017-06-23T03:03:37.071Z,12.20
2017-06-23T03:06:04.888Z,12.47
2017-06-23T03:08:33.100Z,11.70
2017-06-23T03:11:01.375Z,12.60
2017-06-23T03:13:28.951Z,11.70
2017-06-23T03:15:56.467Z,12.80
2017-06-23T03:18:23.987Z,12.23
2017-06-23T03:20:51.687Z,12.00
2017-06-23T03:23:19.211Z,13.70
2017-06-23T03:25:46.718Z,12.30
2017-06-23T03:28:14.643Z,11.73
2017-06-23T03:30:42.160Z,12.53
2017-06-23T03:33:09.671Z,13.77
2017-06-23T03:35:37.235Z,14.40
2017-06-23T03:38:04.756Z,14.37
2017-06-23T03:40:32.258Z,14.30
2017-06-23T03:42:59.837Z,14.53
2017-06-23T03:45:27.352Z,14.53
2017-06-23T03:47:54.929Z,14.00
2017-06-23T03:50:22.811Z,13.00
2017-06-23T03:52:51.011Z,13.80
2017-06-23T03:55:18.539Z,15.00
2017-06-23T03:57:46.402Z,15.17
2017-06-23T04:00:13.995Z,15.00
2017-06-23T04:02:41.503Z,14.20
2017-06-23T04:05:09.071Z,15.17
2017-06-23T04:07:36.588Z,14.17
2017-06-23T04:10:04.148Z,16.03
2017-06-23T04:12:32.007Z,15.27
2017-06-23T04:14:59.526Z,15.13
2017-06-23T04:17:27.042Z,13.33
2017-06-23T04:19:54.596Z,14.63
2017-06-23T04:22:22.114Z,14.07
2017-06-23T04:24:49.659Z,15.60
2017-06-23T04:27:17.523Z,14.97
2017-06-23T04:29:45.031Z,14.40
2017-06-23T04:32:12.593Z,15.70
2017-06-23T04:34:40.157Z,15.07
2017-06-23T04:37:07.664Z,15.17
2017-06-23T04:39:35.180Z,15.30
2017-06-23T04:42:02.757Z,15.77
2017-06-23T04:44:30.275Z,13.87
2017-06-23T04:46:57.782Z,15.90
2017-06-23T04:49:25.616Z,16.20
2017-06-23T04:51:53.213Z,15.70
2017-06-23T04:54:20.732Z,15.77
2017-06-23T04:56:48.659Z,16.70
2017-06-23T04:59:16.165Z,15.90
2017-06-23T05:01:43.674Z,17.53
2017-06-23T05:04:11.268Z,15.93
2017-06-23T05:06:38.780Z,17.43
2017-06-23T05:09:06.284Z,16.40
2017-06-23T05:11:33.891Z,16.13
2017-06-23T05:14:01.399Z,16.93
2017-06-23T05:16:28.915Z,17.40
2017-06-23T05:18:56.717Z,17.80
2017-06-23T05:21:24.228Z,17.70
2017-06-23T05:23:52.007Z,16.73
2017-06-23T05:26:20.135Z,17.10
2017-06-23T05:28:47.683Z,17.37
2017-06-23T05:31:15.590Z,17.10
2017-06-23T05:33:43.964Z,16.97
2017-06-23T05:36:11.473Z,17.97
2017-06-23T05:38:39.289Z,18.03
2017-06-23T05:41:06.807Z,17.10
2017-06-23T05:43:34.446Z,17.20
2017-06-23T05:46:02.720Z,17.33
2017-06-23T05:48:30.236Z,15.83
2017-06-23T05:50:57.750Z,15.80
2017-06-23T05:53:25.322Z,16.17
2017-06-23T05:55:52.831Z,17.50
2017-06-23T05:58:20.359Z,17.20
2017-06-23T06:00:48.158Z,17.63
2017-06-23T06:03:15.751Z,15.13
2017-06-23T06:05:43.262Z,17.50
2017-06-23T06:08:10.818Z,18.07
2017-06-23T06:10:38.331Z,17.10
2017-06-23T06:13:05.835Z,16.97
2017-06-23T06:15:33.679Z,17.00
2017-06-23T06:18:01.206Z,15.80
2017-06-23T06:20:28.803Z,16.60
2017-06-23T06:22:56.679Z,16.53
2017-06-23T06:25:24.195Z,16.23
2017-06-23T06:27:51.698Z,17.60
2017-06-23T06:30:19.292Z,17.90
2017-06-23T06:32:46.895Z,16.43
2017-06-23T06:35:14.399Z,17.30
2017-06-23T06:37:41.970Z,16.73
2017-06-23T06:40:09.547Z,16.13
2017-06-23T06:42:37.055Z,15.37
2017-06-23T06:45:04.996Z,14.70
2017-06-23T06:47:32.507Z,15.43
2017-06-23T06:50:00.021Z,15.27
2017-06-23T06:52:27.855Z,15.97
2017-06-23T06:54:55.368Z,16.20
2017-06-23T06:57:22.906Z,13.70
2017-06-23T06:59:50.705Z,16.03
2017-06-23T07:02:18.231Z,16.10
2017-06-23T07:04:45.807Z,15.53
2017-06-23T07:07:13.432Z,15.57
2017-06-23T07:09:40.941Z,15.97
2017-06-23T07:12:08.460Z,16.10
2017-06-23T07:14:36.259Z,17.13
2017-06-23T07:17:03.775Z,15.30
2017-06-23T07:19:31.596Z,15.63
2017-06-23T07:21:59.164Z,15.67
2017-06-23T07:24:26.678Z,15.43
2017-06-23T07:26:54.191Z,17.20
2017-06-23T07:29:21.992Z,17.00
2017-06-23T07:31:49.503Z,17.00
2017-06-23T07:34:17.023Z,17.73
2017-06-23T07:36:44.583Z,19.10
2017-06-23T07:39:12.131Z,18.73
2017-06-23T07:41:39.670Z,16.00
2017-06-23T07:44:07.575Z,19.07
2017-06-23T07:46:35.092Z,18.20
2017-06-23T07:49:02.597Z,17.67
2017-06-23T07:51:30.407Z,18.57
2017-06-23T07:53:57.923Z,19.40
2017-06-23T07:56:25.431Z,18.47
2017-06-23T07:58:53.663Z,18.80
2017-06-23T08:01:21.221Z,19.10
2017-06-23T08:03:48.831Z,18.20
2017-06-23T08:06:16.424Z,20.17
2017-06-23T08:08:43.928Z,19.80
2017-06-23T08:11:11.435Z,20.00
2017-06-23T08:13:39.026Z,17.73
2017-06-23T08:16:06.538Z,18.53
2017-06-23T08:18:34.051Z,18.73
2017-06-23T08:21:01.611Z,18.70
2017-06-23T08:23:29.163Z,19.33
2017-06-23T08:25:56.693Z,18.70
2017-06-23T08:28:24.484Z,19.27
2017-06-23T08:30:52.064Z,18.83
2017-06-23T08:33:19.575Z,19.40
2017-06-23T08:35:47.125Z,16.67
2017-06-23T08:38:14.642Z,17.67
2017-06-23T08:40:42.604Z,18.23
2017-06-23T08:43:10.677Z,19.90
2017-06-23T08:45:38.196Z,18.43
2017-06-23T08:48:05.703Z,18.80
2017-06-23T08:50:33.265Z,19.63
2017-06-23T08:53:00.827Z,18.23
2017-06-23T08:55:28.350Z,18.20
2017-06-23T08:57:56.171Z,20.10
2017-06-23T09:00:23.687Z,19.20
2017-06-23T09:02:51.199Z,19.47
2017-06-23T09:05:19.063Z,18.80
2017-06-23T09:07:46.603Z,20.80
2017-06-23T09:10:14.131Z,20.80
2017-06-23T09:12:41.755Z,20.73
2017-06-23T09:15:09.266Z,19.83
2017-06-23T09:17:36.787Z,19.17
2017-06-23T09:20:04.364Z,18.73
2017-06-23T09:22:31.890Z,19.10
2017-06-23T09:24:59.424Z,18.17
2017-06-23T09:27:27.384Z,19.53
2017-06-23T09:29:54.891Z,19.17
2017-06-23T09:32:22.408Z,18.10
2017-06-23T09:34:50.215Z,16.67
2017-06-23T09:37:17.731Z,17.10
2017-06-23T09:39:45.343Z,16.97
2017-06-23T09:42:12.911Z,17.73
2017-06-23T09:44:40.428Z,18.00
2017-06-23T09:47:07.936Z,18.03
2017-06-23T09:49:35.843Z,18.20
2017-06-23T09:52:03.423Z,17.13
2017-06-23T09:54:30.955Z,17.23
2017-06-23T09:56:58.831Z,19.10
2017-06-23T09:59:26.359Z,18.03
2017-06-23T10:01:53.879Z,18.13
2017-06-23T10:04:21.540Z,18.23
2017-06-23T10:06:49.058Z,17.77
2017-06-23T10:09:16.562Z,17.73
2017-06-23T10:11:44.141Z,16.83
2017-06-23T10:14:11.655Z,16.83
2017-06-23T10:16:39.166Z,16.00
2017-06-23T10:19:07.093Z,17.47
2017-06-23T10:21:34.597Z,16.60
2017-06-23T10:24:02.100Z,17.83
2017-06-23T10:26:29.671Z,16.80
2017-06-23T10:28:57.175Z,16.97
2017-06-23T10:31:24.675Z,16.87
2017-06-23T10:33:52.488Z,17.00
2017-06-23T10:36:19.991Z,15.50
2017-06-23T10:38:47.536Z,16.87
2017-06-23T10:41:15.483Z,14.07
2017-06-23T10:43:43.682Z,15.33
2017-06-23T10:46:11.252Z,16.30
2017-06-23T10:48:39.061Z,16.60
2017-06-23T10:51:06.569Z,17.03
2017-06-23T10:53:34.083Z,15.90
2017-06-23T10:56:02.096Z,17.90
2017-06-23T10:58:29.635Z,16.87
2017-06-23T11:00:57.179Z,19.80
2017-06-23T11:03:25.051Z,18.80
2017-06-23T11:05:52.573Z,21.63
2017-06-23T11:08:20.078Z,21.57
2017-06-23T11:10:47.951Z,17.63
2017-06-23T11:13:15.638Z,19.17
2017-06-23T11:15:43.191Z,18.17
2017-06-23T11:18:11.098Z,18.57
2017-06-23T11:20:38.636Z,17.43
2017-06-23T11:23:06.143Z,19.33
2017-06-23T11:25:33.716Z,18.67
2017-06-23T11:28:01.279Z,17.90
2017-06-23T11:30:28.811Z,18.57
2017-06-23T11:32:56.988Z,20.03
2017-06-23T11:35:24.523Z,20.00
2017-06-23T11:37:52.026Z,18.10
2017-06-23T11:40:19.831Z,19.30
2017-06-23T11:42:47.348Z,18.37
2017-06-23T11:45:14.860Z,17.83
2017-06-23T11:47:42.428Z,16.30
2017-06-23T11:50:10.039Z,19.07
2017-06-23T11:52:37.547Z,18.77
2017-06-23T11:55:05.371Z,16.47
2017-06-23T11:57:32.920Z,18.43
2017-06-23T12:00:00.443Z,17.83
2017-06-23T12:02:28.223Z,17.97
2017-06-23T12:04:55.733Z,18.03
2017-06-23T12:07:23.240Z,18.00
2017-06-23T12:09:50.889Z,16.30
2017-06-23T12:12:18.483Z,18.07
2017-06-23T12:14:46.007Z,17.40
2017-06-23T12:17:13.823Z,13.37
2017-06-23T12:19:41.339Z,15.77
2017-06-23T12:22:08.843Z,18.00
2017-06-23T12:24:36.453Z,18.10
2017-06-23T12:27:03.971Z,18.50
2017-06-23T12:29:31.591Z,17.13
2017-06-23T12:31:59.165Z,17.57
2017-06-23T12:34:26.707Z,18.80
2017-06-23T12:36:54.331Z,17.83
2017-06-23T12:39:21.903Z,17.20
2017-06-23T12:41:49.425Z,16.20
2017-06-23T12:44:17.008Z,15.53
2017-06-23T12:46:44.660Z,18.17
2017-06-23T12:49:12.295Z,16.73
2017-06-23T12:51:39.964Z,15.57
2017-06-23T12:54:07.904Z,16.13
2017-06-23T12:56:36.215Z,16.90
2017-06-23T12:59:04.404Z,16.70
2017-06-23T13:01:31.911Z,15.90
2017-06-23T13:04:00.359Z,15.80
2017-06-23T13:06:28.275Z,15.80
2017-06-23T13:08:55.835Z,15.40
2017-06-23T13:11:24.167Z,14.83
2017-06-23T13:13:52.038Z,14.23
2017-06-23T13:16:19.835Z,13.77
2017-06-23T13:18:47.740Z,15.37
2017-06-23T13:21:15.311Z,15.20
2017-06-23T13:23:43.155Z,13.53
2017-06-23T13:26:10.884Z,14.00
2017-06-23T13:28:38.439Z,12.60
2017-06-23T13:31:05.964Z,15.40
2017-06-23T13:33:33.471Z,12.87
2017-06-23T13:36:01.299Z,13.00
2017-06-23T13:38:28.811Z,13.90
2017-06-23T13:40:56.331Z,12.20
2017-06-23T13:43:23.929Z,13.30
2017-06-23T13:45:51.439Z,12.70
2017-06-23T13:48:19.314Z,12.30
2017-06-23T13:50:47.543Z,13.80
2017-06-23T13:53:15.104Z,12.50
2017-06-23T13:55:43.033Z,12.43
2017-06-23T13:58:10.541Z,12.30
2017-06-23T14:00:38.059Z,11.70
2017-06-23T14:03:05.646Z,12.30
2017-06-23T14:05:33.155Z,12.70
2017-06-23T14:08:00.967Z,12.63
2017-06-23T14:10:28.471Z,10.57
2017-06-23T14:12:55.989Z,11.53
2017-06-23T14:15:23.862Z,11.33
2017-06-23T14:17:51.371Z,8.90
2017-06-23T14:20:18.916Z,12.43
2017-06-23T14:22:46.835Z,12.90
2017-06-23T14:25:14.395Z,12.60
2017-06-23T14:27:42.247Z,11.87
2017-06-23T14:30:09.802Z,12.70
2017-06-23T14:32:37.334Z,11.90
2017-06-23T14:35:04.899Z,13.10
2017-06-23T14:37:32.414Z,11.70
2017-06-23T14:39:59.965Z,10.93
2017-06-23T14:42:27.559Z,12.50
2017-06-23T14:44:55.596Z,12.37
2017-06-23T14:47:23.154Z,13.97
2017-06-23T14:49:50.998Z,11.53
2017-06-23T14:52:18.559Z,12.43
2017-06-23T14:54:46.088Z,12.07
2017-06-23T14:57:13.671Z,13.07
2017-06-23T14:59:41.481Z,11.70
2017-06-23T15:02:08.987Z,12.40
2017-06-23T15:04:36.799Z,11.73
2017-06-23T15:07:04.453Z,12.20
2017-06-23T15:09:32.477Z,11.63
2017-06-23T15:11:59.991Z,11.37
2017-06-23T15:14:27.501Z,14.37
2017-06-23T15:16:55.139Z,14.03
2017-06-23T15:19:22.671Z,14.63
2017-06-23T15:21:49.683Z,13.13
2017-06-23T15:24:17.527Z,12.00
2017-06-23T15:26:45.035Z,13.13
2017-06-23T15:29:12.543Z,11.10
2017-06-23T15:31:40.099Z,11.37
2017-06-23T15:34:07.688Z,12.13
2017-06-23T15:36:35.207Z,11.80
2017-06-23T15:39:03.152Z,12.67
2017-06-23T15:41:30.674Z,10.97
2017-06-23T15:43:58.400Z,12.30
2017-06-23T15:46:26.019Z,11.83
2017-06-23T15:48:53.562Z,11.07
2017-06-23T15:51:21.147Z,11.50
2017-06-23T15:53:49.043Z,9.97
2017-06-23T15:56:16.578Z,11.13
2017-06-23T15:58:44.115Z,13.80
2017-06-23T16:01:11.691Z,11.90
2017-06-23T16:03:39.277Z,13.10
2017-06-23T16:06:06.787Z,12.17
2017-06-23T16:08:34.591Z,12.50
2017-06-23T16:11:02.140Z,12.13
2017-06-23T16:13:29.660Z,13.73
2017-06-23T16:15:57.491Z,12.40
2017-06-23T16:18:25.059Z,13.10
2017-06-23T16:20:52.743Z,12.20
2017-06-23T16:23:20.434Z,12.67
2017-06-23T16:25:48.040Z,12.30
2017-06-23T16:28:15.575Z,13.93
2017-06-23T16:30:43.309Z,13.00
2017-06-23T16:33:10.815Z,13.47
2017-06-23T16:35:38.554Z,14.30
2017-06-23T16:38:06.179Z,14.87
2017-06-23T16:40:33.700Z,14.33
2017-06-23T16:43:01.231Z,13.47
2017-06-23T16:45:29.076Z,13.53
2017-06-23T16:47:56.584Z,14.03
2017-06-23T16:50:24.108Z,13.57
2017-06-23T16:52:51.699Z,13.77
2017-06-23T16:55:19.235Z,13.07
2017-06-23T16:57:46.751Z,12.73
2017-06-23T17:00:14.319Z,11.20
2017-06-23T17:02:41.927Z,13.57
2017-06-23T17:05:09.434Z,12.80
2017-06-23T17:07:37.040Z,12.20
2017-06-23T17:10:04.553Z,11.63
2017-06-23T17:12:32.071Z,13.47
2017-06-23T17:14:59.675Z,13.00
2017-06-23T17:17:27.241Z,15.30
2017-06-23T17:19:54.767Z,11.23
2017-06-23T17:22:22.516Z,13.20
2017-06-23T17:24:50.065Z,12.83
2017-06-23T17:27:17.575Z,13.30
2017-06-23T17:29:45.190Z,12.57
2017-06-23T17:32:12.720Z,14.00
2017-06-23T17:34:40.256Z,12.97
2017-06-23T17:37:08.079Z,14.23
2017-06-23T17:39:35.703Z,13.40
2017-06-23T17:42:02.992Z,14.40
2017-06-23T17:44:30.577Z,12.90
2017-06-23T17:46:58.083Z,13.90
2017-06-23T17:49:25.599Z,13.60
2017-06-23T17:51:53.221Z,13.33
2017-06-23T17:54:21.399Z,13.23
2017-06-23T17:56:48.951Z,13.63
2017-06-23T17:59:16.764Z,13.60
2017-06-23T18:01:44.282Z,13.73
2017-06-23T18:04:11.805Z,14.40
2017-06-23T18:06:39.416Z,13.77
2017-06-23T18:09:07.000Z,12.60
2017-06-23T18:11:35.410Z,12.73
2017-06-23T18:14:03.282Z,13.60
2017-06-23T18:16:30.791Z,13.63
2017-06-23T18:18:58.880Z,13.97
2017-06-23T18:21:26.423Z,13.90
2017-06-23T18:23:54.107Z,13.17
2017-06-23T18:26:21.791Z,12.20
2017-06-23T18:28:49.827Z,13.47
2017-06-23T18:31:17.387Z,12.80
2017-06-23T18:33:45.259Z,13.47
2017-06-23T18:36:12.774Z,12.50
2017-06-23T18:38:40.380Z,12.53
2017-06-23T18:41:08.251Z,14.60
2017-06-23T18:43:35.881Z,13.60
2017-06-23T18:46:03.547Z,13.40
2017-06-23T18:48:31.367Z,12.73
2017-06-23T18:50:58.904Z,14.43
2017-06-23T18:53:26.503Z,12.07
2017-06-23T18:55:54.087Z,12.70
2017-06-23T18:58:21.598Z,13.30
2017-06-23T19:00:49.249Z,11.47
2017-06-23T19:03:17.171Z,13.90
2017-06-23T19:05:44.959Z,14.00
2017-06-23T19:08:12.564Z,11.47
2017-06-23T19:10:40.426Z,14.27
2017-06-23T19:13:07.935Z,13.23
2017-06-23T19:15:35.475Z,13.83
2017-06-23T19:18:03.336Z,13.33
2017-06-23T19:20:30.880Z,14.20
2017-06-23T19:22:58.491Z,12.83
2017-06-23T19:25:26.391Z,13.00
2017-06-23T19:27:53.912Z,12.93
2017-06-23T19:30:21.435Z,13.87
2017-06-23T19:32:49.127Z,14.10
2017-06-23T19:35:16.675Z,12.20
2017-06-23T19:37:44.182Z,11.90
2017-06-23T19:40:11.747Z,13.40
2017-06-23T19:42:39.259Z,14.43
2017-06-23T19:45:07.724Z,12.70
2017-06-23T19:47:35.303Z,12.13
2017-06-23T19:50:02.826Z,13.60
2017-06-23T19:52:30.404Z,13.03
2017-06-23T19:54:57.946Z,12.47
2017-06-23T19:57:25.511Z,13.20
2017-06-23T19:59:53.020Z,13.73
2017-06-23T20:02:20.846Z,14.77
2017-06-23T20:04:48.382Z,12.67
2017-06-23T20:07:16.011Z,12.30
2017-06-23T20:09:43.574Z,12.33
2017-06-23T20:12:11.151Z,11.37
2017-06-23T20:14:38.667Z,9.90
2017-06-23T20:17:06.495Z,13.20
2017-06-23T20:19:34.140Z,10.33
2017-06-23T20:22:01.960Z,11.10
2017-06-23T20:24:29.758Z,10.00
2017-06-23T20:26:57.313Z,11.63
2017-06-23T20:29:24.836Z,11.50
2017-06-23T20:31:52.712Z,11.73
2017-06-23T20:34:20.251Z,10.50
2017-06-23T20:36:48.043Z,11.17
2017-06-23T20:39:15.611Z,10.10
2017-06-23T20:41:43.176Z,10.90
2017-06-23T20:44:10.838Z,11.60
2017-06-23T20:46:38.395Z,10.40
2017-06-23T20:49:06.048Z,11.03
2017-06-23T20:51:33.603Z,10.40
2017-06-23T20:54:01.176Z,9.93
2017-06-23T20:56:28.683Z,9.90
2017-06-23T20:58:56.415Z,10.77
2017-06-23T21:01:24.810Z,10.03
2017-06-23T21:03:52.322Z,10.70
2017-06-23T21:06:19.839Z,10.70
2017-06-23T21:08:48.558Z,10.90
2017-06-23T21:11:16.855Z,10.97
2017-06-23T21:13:44.424Z,10.90
2017-06-23T21:16:11.939Z,10.50
2017-06-23T21:18:39.750Z,9.43
2017-06-23T21:21:07.284Z,11.60
2017-06-23T21:23:34.956Z,10.70
2017-06-23T21:26:02.560Z,10.70
2017-06-23T21:28:30.073Z,10.03
2017-06-23T21:30:57.576Z,12.33
2017-06-23T21:33:25.133Z,11.13
2017-06-23T21:35:52.714Z,9.63
2017-06-23T21:38:20.248Z,10.10
2017-06-23T21:40:59.491Z,10.47
2017-06-23T21:43:26.999Z,12.13
2017-06-23T21:45:54.506Z,11.30
2017-06-23T21:48:22.169Z,11.20
2017-06-23T21:50:49.740Z,10.47
2017-06-23T21:53:17.299Z,11.53
2017-06-23T21:55:45.131Z,10.90
2017-06-23T21:58:12.638Z,9.70
2017-06-23T22:00:40.443Z,10.30
2017-06-23T22:03:08.006Z,10.93
2017-06-23T22:05:35.516Z,11.77
2017-06-23T22:08:03.130Z,10.63
2017-06-23T22:10:30.692Z,11.43
2017-06-23T22:12:58.280Z,10.90
2017-06-23T22:15:25.795Z,10.77
2017-06-23T22:17:53.384Z,10.17
2017-06-23T22:20:20.908Z,11.17
2017-06-23T22:22:49.130Z,11.73
2017-06-23T22:25:17.067Z,12.60
2017-06-23T22:27:44.575Z,10.90
2017-06-23T22:30:12.091Z,10.93
2017-06-23T22:32:39.696Z,12.07
2017-06-23T22:35:07.314Z,11.23
2017-06-23T22:37:35.062Z,12.20
2017-06-23T22:40:02.668Z,11.20
2017-06-23T22:42:30.185Z,11.33
2017-06-23T22:44:57.691Z,12.33
2017-06-23T22:47:25.337Z,11.53
2017-06-23T22:49:52.850Z,11.40
2017-06-23T22:52:20.372Z,14.77
2017-06-23T22:54:48.098Z,12.57
2017-06-23T22:57:15.663Z,13.10
2017-06-23T22:59:43.331Z,10.70
2017-06-23T23:02:10.979Z,12.60
2017-06-23T23:04:38.511Z,11.90
2017-06-23T23:07:06.028Z,13.07
2017-06-23T23:09:33.925Z,13.33
2017-06-23T23:12:01.446Z,12.00
2017-06-23T23:14:29.007Z,13.00
2017-06-23T23:16:56.583Z,11.47
2017-06-23T23:19:24.107Z,11.80
2017-06-23T23:21:51.914Z,13.87
2017-06-23T23:24:19.740Z,13.07
2017-06-23T23:26:47.335Z,12.87
2017-06-23T23:29:14.876Z,12.57
2017-06-23T23:31:42.447Z,13.40
2017-06-23T23:34:09.961Z,12.27
2017-06-23T23:36:37.497Z,13.77
2017-06-23T23:39:05.318Z,12.97
2017-06-23T23:41:33.139Z,13.53
2017-06-23T23:44:00.659Z,12.67
2017-06-23T23:46:28.226Z,14.40
2017-06-23T23:48:56.002Z,12.50
2017-06-23T23:51:23.522Z,13.93
2017-06-23T23:53:51.799Z,13.33
2017-06-23T23:56:19.432Z,14.30
2017-06-23T23:58:46.964Z,13.27
